Time;durP1;ratioP1;P1;durP2;ratioP2;P2;SDS_P1;SDS_P2;PMS_P1;PMS_P2;Temp;Humidity;BMP_temperature;BMP_pressure;BME280_temperature;BME280_humidity;BME280_pressure;Samples;Min_cycle;Max_cycle;Signal;HPM_P1;HPM_P2
2022/08/15 00:02:25;;;;;;;4.82;3.00;;;;;;;21.28;50.77;93151.97;4997458;28;20196;-69
2022/08/15 00:05:12;;;;;;;3.25;2.72;;;;;;;21.34;51.35;93145.66;5001848;28;20226;-68
2022/08/15 00:07:56;;;;;;;7.10;3.08;;;;;;;21.35;50.91;93156.38;5001344;28;20204;-69
2022/08/15 00:10:44;;;;;;;4.75;2.75;;;;;;;21.46;50.39;93153.72;5010579;28;20196;-68
2022/08/15 00:13:29;;;;;;;3.78;2.97;;;;;;;21.43;51.37;93155.06;5003483;28;20855;-68
2022/08/15 00:16:14;;;;;;;5.22;2.95;;;;;;;21.52;50.78;93156.69;5006009;28;20675;-68
2022/08/15 00:18:59;;;;;;;4.97;2.70;;;;;;;21.52;50.84;93151.69;5009916;28;20203;-68
2022/08/15 00:21:46;;;;;;;2.95;2.58;;;;;;;21.41;50.95;93152.22;5008022;28;20203;-69
2022/08/15 00:24:33;;;;;;;3.63;3.00;;;;;;;21.63;50.68;93146.91;5002051;28;20235;-69
2022/08/15 00:27:19;;;;;;;3.00;2.70;;;;;;;21.41;51.80;93140.81;4998986;28;20199;-69
2022/08/15 00:30:06;;;;;;;7.65;2.78;;;;;;;21.46;51.27;93150.88;5007305;28;20249;-68
2022/08/15 00:32:56;;;;;;;3.60;2.80;;;;;;;21.41;51.59;93141.53;4990997;28;20234;-68
2022/08/15 00:35:42;;;;;;;3.90;2.40;;;;;;;21.39;51.44;93144.34;5004251;28;20672;-68
2022/08/15 00:38:29;;;;;;;3.58;2.47;;;;;;;21.36;51.72;93135.00;5010542;28;20568;-69
2022/08/15 00:44:25;;;;;;;7.32;3.08;;;;;;;21.29;52.48;93139.16;5003453;28;20200;-69
2022/08/15 00:47:14;;;;;;;8.27;2.88;;;;;;;21.35;51.67;93138.56;4998143;28;20767;-69
2022/08/15 00:49:58;;;;;;;4.88;2.95;;;;;;;21.30;51.54;93142.72;5012193;28;20575;-69
2022/08/15 00:52:42;;;;;;;4.43;2.40;;;;;;;21.30;51.92;93132.06;4995855;28;20213;-69
2022/08/15 00:55:29;;;;;;;4.63;2.85;;;;;;;21.37;51.88;93130.75;5003658;28;20196;-69
2022/08/15 00:58:13;;;;;;;6.78;2.92;;;;;;;21.18;52.94;93131.81;5012168;28;20204;-69
2022/08/15 01:00:59;;;;;;;5.78;3.10;;;;;;;21.19;52.97;93144.66;4992162;28;20232;-69
2022/08/15 01:03:47;;;;;;;5.10;2.75;;;;;;;20.96;53.63;93140.66;4999993;28;20191;-69
2022/08/15 01:06:37;;;;;;;6.20;3.10;;;;;;;21.20;52.12;93129.03;5003318;28;20231;-69
2022/08/15 01:09:21;;;;;;;5.55;2.78;;;;;;;21.22;52.05;93131.91;5008338;28;20204;-69
2022/08/15 01:12:10;;;;;;;3.28;2.60;;;;;;;21.27;51.69;93132.72;4998152;28;20205;-69
2022/08/15 01:14:58;;;;;;;4.47;2.70;;;;;;;21.35;51.39;93127.88;4998472;28;20200;-70
2022/08/15 01:17:44;;;;;;;4.90;2.72;;;;;;;21.51;50.72;93126.72;5007150;28;20287;-69
2022/08/15 01:20:32;;;;;;;8.77;2.88;;;;;;;21.43;51.46;93126.56;5005536;28;20192;-70
2022/08/15 01:23:25;;;;;;;4.88;2.90;;;;;;;21.58;50.57;93131.84;4992269;28;20201;-71
2022/08/15 01:26:10;;;;;;;3.55;2.80;;;;;;;21.56;51.08;93131.09;4994339;28;20201;-70
2022/08/15 01:28:55;;;;;;;4.20;2.58;;;;;;;21.42;51.11;93139.41;5011907;28;20196;-69
2022/08/15 01:31:40;;;;;;;7.55;2.60;;;;;;;21.67;50.53;93144.09;4996714;28;20228;-71
2022/08/15 01:34:24;;;;;;;5.30;2.83;;;;;;;21.72;50.38;93142.78;4998062;28;20191;-68
2022/08/15 01:37:09;;;;;;;3.47;2.45;;;;;;;21.64;51.15;93145.50;5005389;28;20257;-69
2022/08/15 01:40:00;;;;;;;5.10;2.92;;;;;;;21.57;51.37;93152.50;5002370;28;20231;-69
2022/08/15 01:42:48;;;;;;;4.65;2.90;;;;;;;21.36;51.63;93157.81;5004101;28;20195;-70
2022/08/15 01:45:35;;;;;;;7.15;2.80;;;;;;;21.36;51.98;93163.50;5004464;28;20342;-69
2022/08/15 01:48:32;;;;;;;6.93;2.95;;;;;;;21.40;51.98;93151.47;5011538;28;20227;-69
2022/08/15 01:51:17;;;;;;;7.30;2.70;;;;;;;21.18;52.75;93160.31;4995773;28;20197;-68
2022/08/15 01:54:08;;;;;;;5.82;2.72;;;;;;;21.25;52.07;93164.72;5005293;28;20290;-74
2022/08/15 01:56:53;;;;;;;4.30;2.70;;;;;;;21.18;52.08;93153.88;5006528;28;20200;-70
2022/08/15 01:59:38;;;;;;;3.15;2.50;;;;;;;21.24;52.08;93156.84;4992991;28;20208;-69
2022/08/15 02:02:24;;;;;;;5.93;2.72;;;;;;;21.18;52.08;93166.00;4993362;28;20247;-70
2022/08/15 02:05:08;;;;;;;4.15;2.85;;;;;;;21.27;52.60;93166.91;5003971;28;20251;-70
2022/08/15 02:07:54;;;;;;;6.47;2.80;;;;;;;21.17;52.55;93161.72;4999771;28;20740;-69
2022/08/15 02:10:43;;;;;;;5.25;2.58;;;;;;;21.10;52.70;93176.50;4998370;28;20204;-70
2022/08/15 02:13:29;;;;;;;3.60;2.70;;;;;;;21.25;52.45;93181.81;5002773;28;20323;-69
2022/08/15 02:16:16;;;;;;;5.55;3.13;;;;;;;21.03;53.38;93167.13;5002590;28;20234;-69
2022/08/15 02:19:10;;;;;;;4.78;2.78;;;;;;;21.19;53.10;93175.28;4999692;28;20215;-70
2022/08/15 02:21:55;;;;;;;6.40;2.70;;;;;;;21.05;53.25;93175.69;4999879;28;20208;-70
2022/08/15 02:24:40;;;;;;;3.33;2.45;;;;;;;21.11;53.70;93178.66;5002429;28;20204;-71
2022/08/15 02:27:27;;;;;;;4.22;3.20;;;;;;;21.10;53.78;93182.94;4997389;28;20200;-71
2022/08/15 02:30:15;;;;;;;7.50;2.78;;;;;;;21.10;53.63;93187.91;5005014;28;20205;-71
2022/08/15 02:33:01;;;;;;;9.60;3.20;;;;;;;20.94;54.30;93183.31;5006853;28;20223;-71
2022/08/15 02:35:45;;;;;;;9.02;3.22;;;;;;;21.02;54.62;93194.16;5002164;28;20291;-69
2022/08/15 02:38:31;;;;;;;5.43;2.60;;;;;;;20.94;54.80;93183.31;5006597;28;20213;-70
2022/08/15 02:41:22;;;;;;;4.75;3.00;;;;;;;20.94;54.72;93185.44;5006177;28;20222;-69
2022/08/15 02:44:07;;;;;;;3.40;2.85;;;;;;;20.95;55.13;93184.03;4994625;28;20196;-68
2022/08/15 02:46:54;;;;;;;6.57;3.03;;;;;;;20.95;55.29;93189.72;5009386;28;20207;-68
2022/08/15 02:49:40;;;;;;;9.68;3.13;;;;;;;20.90;55.43;93183.25;5009177;28;20219;-69
2022/08/15 02:52:24;;;;;;;5.00;3.08;;;;;;;20.84;56.06;93188.09;4988663;28;21000;-68
2022/08/15 02:55:12;;;;;;;3.03;2.70;;;;;;;20.90;56.36;93193.91;5002551;28;20203;-70
2022/08/15 02:57:56;;;;;;;6.97;2.90;;;;;;;20.70;57.27;93190.63;4997878;28;20203;-68
2022/08/15 03:00:43;;;;;;;5.53;2.88;;;;;;;20.70;56.80;93193.47;4991576;28;20204;-70
2022/08/15 03:03:28;;;;;;;4.32;2.63;;;;;;;20.78;56.73;93194.38;4997448;28;20291;-70
2022/08/15 03:06:17;;;;;;;5.10;2.88;;;;;;;20.69;56.56;93197.69;5008044;28;20266;-68
2022/08/15 03:09:06;;;;;;;9.75;2.67;;;;;;;20.56;57.42;93196.72;4977793;28;20207;-68
2022/08/15 03:11:55;;;;;;;5.75;3.08;;;;;;;20.66;56.83;93199.06;5002884;28;20200;-72
2022/08/15 03:14:40;;;;;;;4.20;3.07;;;;;;;20.65;56.73;93209.00;5004984;28;20208;-68
2022/08/15 03:17:25;;;;;;;3.38;2.97;;;;;;;20.66;56.90;93210.47;4999430;28;20200;-69
2022/08/15 03:20:10;;;;;;;3.30;2.87;;;;;;;20.72;56.58;93210.59;5003662;28;20554;-69
2022/08/15 03:22:54;;;;;;;3.65;2.92;;;;;;;20.90;55.77;93211.00;4998770;28;20200;-67
2022/08/15 03:25:46;;;;;;;3.72;2.67;;;;;;;20.66;56.73;93210.47;5002362;28;20235;-69
2022/08/15 03:28:32;;;;;;;8.93;3.15;;;;;;;20.82;55.93;93210.81;5005165;28;20199;-69
2022/08/15 03:31:23;;;;;;;3.40;3.00;;;;;;;20.88;55.63;93213.78;5002586;28;20200;-69
2022/08/15 03:34:07;;;;;;;7.57;3.03;;;;;;;20.71;56.14;93212.00;4994473;28;20235;-69
2022/08/15 03:36:52;;;;;;;7.43;2.97;;;;;;;20.69;56.40;93217.63;4999609;28;20199;-67
2022/08/15 03:39:37;;;;;;;4.47;2.57;;;;;;;20.80;56.08;93219.31;4995938;28;20192;-68
2022/08/15 03:42:21;;;;;;;7.15;2.95;;;;;;;20.92;55.89;93222.44;4997988;28;20279;-69
2022/08/15 03:45:10;;;;;;;7.28;2.97;;;;;;;20.73;56.48;93223.44;4997230;28;20658;-70
2022/08/15 03:47:54;;;;;;;5.63;2.78;;;;;;;20.69;56.51;93223.31;4995574;28;20200;-72
2022/08/15 03:50:39;;;;;;;4.03;2.67;;;;;;;20.87;56.05;93229.41;4994342;28;20211;-69
2022/08/15 03:53:25;;;;;;;6.93;2.93;;;;;;;20.79;57.38;93232.09;5007603;28;20712;-69
2022/08/15 03:56:18;;;;;;;4.40;2.47;;;;;;;20.52;59.10;93234.34;5007737;28;20285;-71
2022/08/15 03:59:03;;;;;;;8.40;3.33;;;;;;;20.38;61.67;93234.00;5000333;28;20235;-68
2022/08/15 04:01:47;;;;;;;5.07;2.85;;;;;;;19.88;64.71;93238.41;5000641;28;20199;-68
2022/08/15 04:04:32;;;;;;;4.47;3.23;;;;;;;19.60;66.50;93238.41;5016356;28;20233;-69
2022/08/15 04:07:16;;;;;;;8.27;3.03;;;;;;;19.43;66.24;93228.72;4997266;28;20674;-69
2022/08/15 04:10:09;;;;;;;5.07;3.30;;;;;;;19.40;67.08;93230.03;4994163;28;20204;-69
2022/08/15 04:12:54;;;;;;;7.23;3.40;;;;;;;19.36;68.27;93241.31;5002183;28;20232;-68
2022/08/15 04:15:41;;;;;;;6.60;3.40;;;;;;;19.17;69.83;93236.50;4999225;28;20203;-68
2022/08/15 04:18:27;;;;;;;5.50;3.33;;;;;;;19.12;71.04;93237.78;5003400;28;20207;-67
2022/08/15 04:21:13;;;;;;;8.60;3.73;;;;;;;19.07;69.80;93236.91;4995724;28;20250;-67
2022/08/15 04:23:57;;;;;;;6.53;4.00;;;;;;;18.94;72.31;93235.88;5001512;28;20199;-68
2022/08/15 04:26:41;;;;;;;5.33;3.43;;;;;;;19.31;68.10;93234.06;5005252;28;20676;-68
2022/08/15 04:29:26;;;;;;;4.23;3.27;;;;;;;19.32;67.99;93236.22;5001216;28;20207;-68
2022/08/15 04:32:13;;;;;;;5.97;2.77;;;;;;;19.39;66.86;93239.94;4996975;28;20207;-71
2022/08/15 04:35:00;;;;;;;4.80;3.57;;;;;;;19.10;71.19;93234.88;4991343;28;20203;-69
2022/08/15 04:37:45;;;;;;;6.20;3.03;;;;;;;19.22;68.78;93238.78;5002608;28;20227;-69
2022/08/15 04:40:30;;;;;;;5.67;3.33;;;;;;;18.96;69.88;93238.75;4996520;28;20204;-70
2022/08/15 04:43:18;;;;;;;4.37;3.43;;;;;;;19.07;70.65;93239.06;4993884;28;20662;-69
2022/08/15 04:46:04;;;;;;;4.47;3.27;;;;;;;18.82;71.06;93241.19;5004728;28;20227;-69
2022/08/15 04:48:48;;;;;;;4.27;2.67;;;;;;;19.24;67.68;93235.28;5001725;28;20576;-71
2022/08/15 04:51:33;;;;;;;4.00;2.97;;;;;;;19.28;67.81;93235.38;4986384;28;20204;-69
2022/08/15 04:54:17;;;;;;;8.73;3.03;;;;;;;19.13;68.90;93239.22;5006779;28;20227;-70
2022/08/15 04:57:09;;;;;;;6.90;3.30;;;;;;;19.44;68.62;93229.44;5001981;28;20621;-69
2022/08/15 04:59:53;;;;;;;7.70;3.50;;;;;;;19.33;69.16;93231.97;5009226;28;20203;-70
2022/08/15 05:02:40;;;;;;;4.23;3.10;;;;;;;19.17;69.66;93231.53;4990686;28;20703;-69
2022/08/15 05:05:25;;;;;;;5.67;2.70;;;;;;;19.40;66.70;93230.75;5007101;28;20223;-69
2022/08/15 05:08:09;;;;;;;6.73;3.10;;;;;;;19.38;67.26;93232.81;5005153;28;20211;-67
2022/08/15 05:11:01;;;;;;;5.77;2.90;;;;;;;19.34;67.70;93222.06;5009110;28;20680;-67
2022/08/15 05:13:46;;;;;;;2.70;2.40;;;;;;;19.35;67.18;93225.66;4998594;28;20247;-68
2022/08/15 05:16:37;;;;;;;3.37;2.70;;;;;;;19.49;65.75;93231.75;4993342;28;20209;-69
2022/08/15 05:19:24;;;;;;;5.07;2.40;;;;;;;19.57;66.02;93229.09;5002970;28;20760;-71
2022/08/15 05:22:08;;;;;;;2.73;2.00;;;;;;;19.39;65.58;93239.94;4996111;28;20201;-73
2022/08/15 05:24:52;;;;;;;3.40;2.10;;;;;;;19.49;65.21;93243.13;5009054;28;20277;-72
2022/08/15 05:27:36;;;;;;;3.53;1.90;;;;;;;19.37;64.74;93231.38;5004531;28;20208;-67
2022/08/15 05:30:22;;;;;;;3.03;2.17;;;;;;;19.51;65.57;93240.31;5009625;28;20207;-72
2022/08/15 05:33:13;;;;;;;1.43;1.33;;;;;;;19.61;63.82;93248.41;5002674;28;20713;-73
2022/08/15 05:36:00;;;;;;;1.60;1.23;;;;;;;19.42;63.78;93252.81;5001131;28;20228;-69
2022/08/15 05:38:55;;;;;;;2.60;1.33;;;;;;;19.27;63.92;93245.28;5008666;28;20201;-71
2022/08/15 05:41:48;;;;;;;1.30;1.20;;;;;;;19.25;63.85;93243.13;5007509;28;20235;-73
2022/08/15 05:44:48;;;;;;;4.63;1.00;;;;;;;19.24;63.41;93240.97;4995492;28;20234;-69
2022/08/15 05:47:37;;;;;;;1.50;1.10;;;;;;;19.38;62.95;93233.53;4997903;28;20214;-70
2022/08/15 05:50:45;;;;;;;1.53;1.17;;;;;;;19.43;62.52;93234.41;5004273;28;20208;-71
2022/08/15 05:53:50;;;;;;;2.67;1.30;;;;;;;19.31;63.53;93239.75;5000831;28;20693;-71
2022/08/15 05:56:58;;;;;;;4.80;1.63;;;;;;;19.33;63.36;93245.47;5005857;28;20263;-71
2022/08/15 05:59:51;;;;;;;1.70;1.43;;;;;;;19.14;64.00;93237.81;5000424;28;20204;-73
2022/08/15 06:02:53;;;;;;;2.13;1.33;;;;;;;19.37;64.47;93243.47;4999539;28;20220;-68
2022/08/15 06:05:48;;;;;;;1.77;1.30;;;;;;;19.31;65.42;93234.06;4994635;28;20274;-69
2022/08/15 06:08:36;;;;;;;1.90;1.27;;;;;;;19.42;65.88;93232.22;5003880;28;20212;-71
2022/08/15 06:11:31;;;;;;;1.80;1.50;;;;;;;19.37;66.49;93237.78;5005393;28;20200;-72
2022/08/15 06:14:24;;;;;;;2.57;1.73;;;;;;;19.28;67.11;93246.75;4994689;28;20240;-69
2022/08/15 06:17:16;;;;;;;1.93;1.70;;;;;;;19.31;67.45;93245.41;5003975;28;20200;-70
2022/08/15 06:20:04;;;;;;;1.93;1.73;;;;;;;19.49;67.81;93243.13;5005987;28;20192;-71
2022/08/15 06:23:00;;;;;;;2.90;2.23;;;;;;;19.52;67.68;93247.44;5000448;28;20283;-69
2022/08/15 06:26:18;;;;;;;3.27;1.70;;;;;;;19.46;67.77;93260.75;4995012;28;20200;-68
2022/08/15 06:29:33;;;;;;;1.87;1.70;;;;;;;19.60;68.54;93253.34;4996110;28;20616;-69
2022/08/15 06:32:27;;;;;;;1.67;1.50;;;;;;;19.76;66.66;93259.47;5003606;28;20477;-69
2022/08/15 06:35:22;;;;;;;3.17;1.83;;;;;;;19.34;67.22;93272.47;4999498;28;20196;-71
2022/08/15 06:38:25;;;;;;;2.93;1.83;;;;;;;19.71;66.30;93271.41;5009574;28;20200;-71
2022/08/15 06:41:27;;;;;;;3.80;1.90;;;;;;;19.63;66.30;93269.06;5004168;28;20203;-71
2022/08/15 06:44:22;;;;;;;2.90;1.77;;;;;;;19.98;66.46;93267.13;5018906;28;20206;-69
2022/08/15 06:47:14;;;;;;;2.50;1.80;;;;;;;19.73;67.13;93272.19;5009805;28;20284;-72
2022/08/15 06:50:09;;;;;;;3.00;1.80;;;;;;;19.58;66.63;93272.47;5003017;28;20240;-68
2022/08/15 06:53:03;;;;;;;4.60;1.65;;;;;;;19.96;65.08;93259.28;4995634;28;20228;-69
2022/08/15 06:56:11;;;;;;;2.37;1.50;;;;;;;20.05;65.10;93260.22;5005868;28;20199;-69
2022/08/15 06:59:02;;;;;;;3.60;1.67;;;;;;;20.11;65.17;93257.53;5004336;28;20212;-69
2022/08/15 07:02:10;;;;;;;2.87;1.90;;;;;;;20.36;64.29;93253.91;5001932;28;20207;-68
2022/08/15 07:05:00;;;;;;;2.97;1.50;;;;;;;20.63;63.37;93257.34;5007514;28;20223;-68
2022/08/15 07:08:22;;;;;;;2.45;1.58;;;;;;;20.85;63.25;93261.44;4998654;28;20637;-71
2022/08/15 07:11:46;;;;;;;2.25;1.50;;;;;;;20.95;61.76;93263.78;4987403;28;20248;-68
2022/08/15 07:15:02;;;;;;;4.28;1.80;;;;;;;21.09;61.17;93272.66;5002677;28;20242;-70
2022/08/15 07:18:07;;;;;;;3.40;1.67;;;;;;;20.96;61.84;93262.38;5006661;28;20199;-69
2022/08/15 07:21:08;;;;;;;3.50;1.73;;;;;;;21.04;61.28;93265.41;5009923;28;20200;-68
2022/08/15 07:24:03;;;;;;;2.95;2.17;;;;;;;21.08;60.43;93262.66;5006583;28;20199;-69
2022/08/15 07:26:59;;;;;;;5.13;2.00;;;;;;;21.47;60.54;93266.34;4999457;28;20239;-70
2022/08/15 07:29:57;;;;;;;3.60;1.48;;;;;;;21.27;60.30;93264.50;5001197;28;20723;-70
2022/08/15 07:32:55;;;;;;;2.45;1.77;;;;;;;21.37;61.28;93261.13;4992549;28;20227;-68
2022/08/15 07:35:41;;;;;;;3.25;1.60;;;;;;;21.26;61.38;93257.34;5000031;28;20199;-68
2022/08/15 07:38:30;;;;;;;2.15;1.48;;;;;;;21.48;61.03;93264.94;4994440;28;20212;-70
2022/08/15 07:41:22;;;;;;;1.40;1.27;;;;;;;21.12;60.65;93265.56;5002494;28;20299;-68
2022/08/15 07:44:27;;;;;;;2.15;1.95;;;;;;;21.30;60.76;93263.13;4998281;28;20227;-69
2022/08/15 07:47:20;;;;;;;1.48;1.35;;;;;;;20.86;62.62;93256.47;5004910;28;20202;-69
2022/08/15 07:50:06;;;;;;;2.22;1.50;;;;;;;21.02;62.51;93259.66;4992582;28;20653;-69
2022/08/15 07:52:56;;;;;;;5.78;2.00;;;;;;;20.86;62.74;93262.16;5004391;28;20224;-70
2022/08/15 07:55:41;;;;;;;1.80;1.70;;;;;;;20.97;63.07;93255.28;5005910;28;20207;-70
2022/08/15 07:58:26;;;;;;;1.55;1.45;;;;;;;20.88;62.57;93262.19;5006072;28;20200;-69
2022/08/15 08:01:25;;;;;;;1.92;1.65;;;;;;;21.20;62.05;93265.78;5006479;28;20203;-69
2022/08/15 08:04:13;;;;;;;2.20;1.55;;;;;;;21.23;62.01;93258.72;4995893;28;20245;-71
2022/08/15 08:07:18;;;;;;;4.97;1.92;;;;;;;21.60;61.73;93270.88;4999539;28;20199;-70
2022/08/15 08:10:25;;;;;;;2.40;1.63;;;;;;;21.71;61.32;93270.38;5000614;28;20204;-70
2022/08/15 08:13:28;;;;;;;2.35;1.88;;;;;;;21.40;60.75;93276.88;5005212;28;20233;-69
2022/08/15 08:16:28;;;;;;;1.88;1.65;;;;;;;21.71;60.50;93275.38;4994401;28;20212;-70
2022/08/15 08:19:18;;;;;;;2.53;1.70;;;;;;;21.95;59.69;93275.84;5008175;28;20707;-69
2022/08/15 08:22:28;;;;;;;2.08;1.65;;;;;;;22.07;61.34;93270.38;5004765;28;20282;-70
2022/08/15 08:25:24;;;;;;;1.92;1.73;;;;;;;21.86;61.24;93277.06;5001467;28;20203;-70
2022/08/15 08:28:44;;;;;;;3.47;1.60;;;;;;;22.70;59.42;93273.53;5001519;28;20605;-69
2022/08/15 08:31:46;;;;;;;1.60;1.50;;;;;;;22.34;59.59;93280.09;4966364;28;20212;-69
2022/08/15 08:34:50;;;;;;;1.95;1.42;;;;;;;22.75;57.70;93275.81;5000721;28;20227;-70
2022/08/15 08:38:09;;;;;;;2.00;1.80;;;;;;;22.59;57.50;93275.50;4995915;28;20204;-70
2022/08/15 08:41:29;;;;;;;2.28;1.60;;;;;;;23.01;56.81;93277.63;5008147;28;20278;-70
2022/08/15 08:44:30;;;;;;;2.58;1.73;;;;;;;23.05;57.37;93271.94;5010092;28;20693;-70
2022/08/15 08:47:58;;;;;;;2.15;1.90;;;;;;;23.25;56.38;93267.25;4993282;28;20281;-70
2022/08/15 08:51:05;;;;;;;4.95;1.83;;;;;;;22.82;56.62;93273.75;4980853;28;20203;-70
2022/08/15 08:54:01;;;;;;;3.50;1.80;;;;;;;22.96;56.29;93277.53;5010557;28;20227;-70
2022/08/15 08:56:48;;;;;;;2.67;1.90;;;;;;;22.83;55.55;93270.22;5003533;28;21951;-70
2022/08/15 08:59:50;;;;;;;3.25;1.83;;;;;;;22.68;55.51;93271.38;5003139;28;20247;-70
2022/08/15 09:03:11;;;;;;;3.70;1.80;;;;;;;22.78;56.40;93271.53;5009451;28;20195;-71
2022/08/15 09:05:58;;;;;;;1.70;1.40;;;;;;;23.10;56.00;93270.59;5009469;28;20701;-69
2022/08/15 09:08:51;;;;;;;2.83;1.50;;;;;;;23.62;53.67;93257.00;5009179;28;20200;-70
2022/08/15 09:11:44;;;;;;;2.13;1.90;;;;;;;23.04;55.36;93270.50;5012446;28;20196;-70
2022/08/15 09:14:40;;;;;;;2.10;1.83;;;;;;;23.49;55.70;93258.28;5008950;28;20239;-69
2022/08/15 09:17:26;;;;;;;3.83;1.95;;;;;;;24.04;53.43;93264.63;5005525;28;20195;-72
2022/08/15 09:20:16;;;;;;;3.22;1.90;;;;;;;24.21;53.52;93269.09;5010558;28;20211;-70
2022/08/15 09:23:04;;;;;;;3.03;1.85;;;;;;;23.79;53.46;93255.78;5010796;28;20200;-70
2022/08/15 09:26:00;;;;;;;2.30;1.75;;;;;;;24.17;52.40;93263.31;5004691;28;20196;-71
2022/08/15 09:29:06;;;;;;;2.25;1.70;;;;;;;24.18;52.89;93273.34;5004675;28;20219;-70
2022/08/15 09:32:17;;;;;;;2.70;1.63;;;;;;;23.65;53.93;93252.75;5002672;28;20195;-70
2022/08/15 09:35:16;;;;;;;2.95;1.50;;;;;;;24.14;52.83;93268.28;5000421;28;20718;-72
2022/08/15 09:38:30;;;;;;;3.17;1.77;;;;;;;24.15;53.89;93260.44;5002124;28;20208;-70
2022/08/15 09:41:28;;;;;;;3.13;1.90;;;;;;;24.56;52.17;93265.13;5012872;28;20196;-71
2022/08/15 09:44:20;;;;;;;1.75;1.60;;;;;;;24.59;51.85;93268.72;4997654;28;20210;-72
2022/08/15 09:47:49;;;;;;;2.00;1.80;;;;;;;24.54;51.23;93267.25;5000399;28;20286;-70
2022/08/15 09:50:43;;;;;;;2.28;1.73;;;;;;;24.64;52.72;93263.75;4998717;28;20667;-68
2022/08/15 09:53:58;;;;;;;2.75;1.80;;;;;;;24.82;51.81;93266.75;5006627;28;20228;-71
2022/08/15 09:56:43;;;;;;;2.45;2.10;;;;;;;24.58;52.35;93273.75;5009331;28;20638;-68
2022/08/15 09:59:27;;;;;;;2.05;1.88;;;;;;;24.23;53.29;93274.13;5004249;28;20668;-69
2022/08/15 10:02:19;;;;;;;2.25;2.05;;;;;;;24.47;53.59;93277.94;5003944;28;20222;-69
2022/08/15 10:05:03;;;;;;;3.58;2.00;;;;;;;24.47;52.84;93275.09;4993247;28;20290;-70
2022/08/15 10:07:51;;;;;;;3.80;1.70;;;;;;;24.61;51.02;93271.63;5000971;28;20200;-69
2022/08/15 10:11:07;;;;;;;2.00;1.83;;;;;;;24.43;51.85;93263.59;4998850;28;20204;-69
2022/08/15 10:14:06;;;;;;;3.55;2.00;;;;;;;24.39;53.14;93269.28;5007960;28;20328;-69
2022/08/15 10:16:54;;;;;;;2.75;1.90;;;;;;;24.47;52.02;93272.22;5005883;28;20204;-70
2022/08/15 10:19:38;;;;;;;3.55;1.90;;;;;;;24.49;51.55;93272.25;4996817;28;20199;-70
2022/08/15 10:22:24;;;;;;;4.68;1.98;;;;;;;24.34;52.23;93267.81;5004799;28;20603;-70
2022/08/15 10:25:24;;;;;;;3.80;1.92;;;;;;;25.13;50.72;93265.56;5009606;28;20211;-70
2022/08/15 10:28:11;;;;;;;2.92;2.13;;;;;;;25.12;51.29;93263.44;5004901;28;20192;-69
2022/08/15 10:30:58;;;;;;;2.97;1.83;;;;;;;24.90;51.22;93267.56;4998604;28;20204;-69
2022/08/15 10:33:48;;;;;;;2.90;1.88;;;;;;;24.79;49.66;93271.06;5002290;28;20259;-71
2022/08/15 10:36:35;;;;;;;2.42;1.60;;;;;;;24.57;50.02;93272.28;5005638;28;20200;-69
2022/08/15 10:39:37;;;;;;;3.50;1.80;;;;;;;24.62;50.82;93267.34;5007557;28;20208;-70
2022/08/15 10:42:37;;;;;;;2.95;2.00;;;;;;;24.84;49.77;93264.63;5003393;28;20230;-71
2022/08/15 10:45:50;;;;;;;2.45;1.90;;;;;;;24.86;49.29;93266.81;5000327;28;20270;-68
2022/08/15 10:49:02;;;;;;;2.38;1.80;;;;;;;24.64;49.40;93263.75;5004633;28;20254;-68
2022/08/15 10:52:16;;;;;;;1.75;1.60;;;;;;;24.83;50.31;93256.75;5003021;28;20665;-68
2022/08/15 10:55:23;;;;;;;2.42;1.70;;;;;;;25.19;49.67;93256.28;4999525;28;20718;-68
2022/08/15 10:58:32;;;;;;;2.42;1.88;;;;;;;25.09;51.40;93256.94;5030546;28;20193;-69
2022/08/15 11:01:38;;;;;;;2.55;1.67;;;;;;;25.01;48.73;93254.03;5023583;28;20286;-75
2022/08/15 11:04:44;;;;;;;3.05;1.73;;;;;;;24.89;50.81;93259.69;5037216;28;20214;-75
2022/08/15 11:07:28;;;;;;;4.35;1.80;;;;;;;24.69;50.28;93250.91;5047549;28;20728;-75
2022/08/15 11:10:17;;;;;;;1.50;1.40;;;;;;;24.27;51.04;93251.97;5050574;28;20202;-75
2022/08/15 11:13:08;;;;;;;3.03;1.90;;;;;;;24.06;52.59;93250.34;5043056;28;20678;-75
2022/08/15 11:15:56;;;;;;;2.47;1.70;;;;;;;24.40;51.06;93252.81;5043932;28;20293;-75
2022/08/15 11:18:52;;;;;;;1.45;1.35;;;;;;;24.16;51.72;93253.28;5047957;28;20217;-75
2022/08/15 11:21:45;;;;;;;3.42;1.88;;;;;;;24.55;50.34;93251.53;5050204;28;20202;-75
2022/08/15 11:24:37;;;;;;;1.65;1.55;;;;;;;24.84;49.73;93243.84;5041013;28;20218;-75
2022/08/15 11:27:24;;;;;;;2.15;1.90;;;;;;;25.15;50.10;93247.66;5024909;28;20234;-75
2022/08/15 11:30:21;;;;;;;3.45;1.65;;;;;;;25.16;48.44;93246.25;5047543;28;20294;-75
2022/08/15 11:33:19;;;;;;;1.70;1.55;;;;;;;25.52;49.83;93245.72;5049022;28;20217;-74
2022/08/15 11:36:17;;;;;;;2.17;1.90;;;;;;;25.91;48.81;93244.44;5048610;28;20198;-75
2022/08/15 11:39:15;;;;;;;4.28;2.00;;;;;;;26.17;48.95;93247.38;5051658;28;20248;-72
2022/08/15 11:42:04;;;;;;;1.95;1.77;;;;;;;25.90;48.82;93243.00;5045807;28;20312;-75
2022/08/15 11:44:54;;;;;;;2.28;1.67;;;;;;;26.42;47.78;93235.94;5045305;28;20214;-75
2022/08/15 11:47:48;;;;;;;4.05;1.80;;;;;;;27.34;45.92;93243.09;5029398;28;20194;-73
2022/08/15 11:50:39;;;;;;;1.38;1.27;;;;;;;27.75;42.59;93235.06;5028143;28;20202;-73
2022/08/15 11:53:32;;;;;;;2.40;1.58;;;;;;;28.42;41.86;93238.31;5049549;28;20566;-72
2022/08/15 11:56:23;;;;;;;2.15;1.63;;;;;;;27.77;41.78;93238.63;5045957;28;20291;-76
2022/08/15 11:59:38;;;;;;;1.60;1.50;;;;;;;28.68;39.83;93230.91;5048677;28;20238;-74
2022/08/15 12:02:22;;;;;;;1.40;1.30;;;;;;;28.10;38.55;93224.06;5051407;28;20297;-75
2022/08/15 12:05:17;;;;;;;1.30;1.20;;;;;;;28.81;38.82;93229.41;5042814;28;20222;-72
2022/08/15 12:08:05;;;;;;;1.30;1.20;;;;;;;28.47;36.34;93222.41;5014697;28;20558;-75
2022/08/15 12:10:51;;;;;;;2.38;1.42;;;;;;;26.97;37.98;93223.00;5039454;28;20210;-70
2022/08/15 12:13:36;;;;;;;1.20;1.10;;;;;;;27.92;38.68;93219.13;5041623;28;20222;-70
2022/08/15 12:16:29;;;;;;;2.38;1.35;;;;;;;28.46;35.58;93206.56;5050137;28;20598;-67
2022/08/15 12:19:28;;;;;;;2.97;1.60;;;;;;;28.32;37.04;93217.50;5049480;28;20273;-68
2022/08/15 12:22:30;;;;;;;2.20;1.40;;;;;;;27.63;37.35;93218.56;5047296;28;20206;-69
2022/08/15 12:25:16;;;;;;;1.38;1.20;;;;;;;28.12;35.93;93212.56;5039325;28;20199;-67
2022/08/15 12:28:00;;;;;;;1.58;1.40;;;;;;;27.88;35.86;93210.53;5045156;28;20202;-67
2022/08/15 12:30:46;;;;;;;1.35;1.20;;;;;;;28.81;35.92;93200.56;5046037;28;20198;-68
2022/08/15 12:33:31;;;;;;;1.83;1.30;;;;;;;28.30;35.98;93198.06;5050049;28;20225;-67
2022/08/15 12:36:15;;;;;;;2.70;1.60;;;;;;;28.22;38.29;93192.34;5046901;28;20231;-71
2022/08/15 12:39:00;;;;;;;1.75;1.63;;;;;;;27.96;37.57;93196.06;5051132;28;20662;-70
2022/08/15 12:41:48;;;;;;;3.95;1.60;;;;;;;27.66;36.58;93190.47;5040681;28;20281;-72
2022/08/15 12:44:37;;;;;;;2.38;1.23;;;;;;;27.83;37.55;93182.47;5033232;28;20202;-71
2022/08/15 12:47:22;;;;;;;1.90;1.23;;;;;;;28.16;35.65;93183.72;5056041;28;20186;-71
2022/08/15 12:50:08;;;;;;;1.65;1.50;;;;;;;28.37;36.83;93178.56;5058689;28;20202;-70
2022/08/15 12:52:53;;;;;;;1.58;1.40;;;;;;;27.64;35.32;93185.47;5039760;28;20218;-70
2022/08/15 12:55:42;;;;;;;1.48;1.38;;;;;;;28.34;34.90;93172.06;5058180;28;20205;-67
2022/08/15 12:58:26;;;;;;;2.00;1.58;;;;;;;28.95;35.50;93175.19;5052560;28;20229;-68
2022/08/15 13:01:11;;;;;;;1.67;1.23;;;;;;;28.52;35.87;93166.16;5061144;28;20206;-67
2022/08/15 13:03:55;;;;;;;1.90;1.50;;;;;;;28.16;37.58;93167.16;5051833;28;20202;-68
2022/08/15 13:06:49;;;;;;;2.92;1.60;;;;;;;28.38;36.65;93162.69;5053256;28;20702;-68
2022/08/15 13:09:33;;;;;;;2.28;1.42;;;;;;;27.76;37.00;93162.38;5047542;28;20257;-68
2022/08/15 13:12:17;;;;;;;1.30;1.20;;;;;;;28.39;34.64;93153.31;5040510;28;20202;-68
2022/08/15 13:15:02;;;;;;;1.90;1.30;;;;;;;28.63;35.15;93157.44;5047247;28;20274;-68
2022/08/15 13:17:47;;;;;;;1.83;1.40;;;;;;;28.34;34.24;93157.66;5049512;28;20194;-67
2022/08/15 13:23:40;;;;;;;1.90;1.08;;;;;;;28.39;35.07;93153.31;5049154;28;20660;-67
2022/08/15 13:26:25;;;;;;;2.55;1.48;;;;;;;28.69;34.56;93149.47;5037797;28;20198;-67
2022/08/15 13:29:10;;;;;;;1.55;1.30;;;;;;;28.37;33.96;93150.47;5053140;28;20685;-68
2022/08/15 13:31:55;;;;;;;2.50;1.40;;;;;;;27.71;33.61;93149.41;5052178;28;20657;-68
2022/08/15 13:34:39;;;;;;;2.25;1.40;;;;;;;27.69;34.78;93140.81;5059941;28;20230;-66
2022/08/15 13:37:25;;;;;;;3.30;1.48;;;;;;;27.75;35.46;93143.66;5038057;28;20222;-68